createdAt,value
2023-02-14T00:00:27.744Z,100178.94
2023-02-14T00:02:54.373Z,100172.91
2023-02-14T00:05:21.483Z,100169.56
2023-02-14T00:07:48.264Z,100176.88
2023-02-14T00:10:14.830Z,100174.19
2023-02-14T00:12:41.382Z,100174.19
2023-02-14T00:15:25.058Z,100170.94
2023-02-14T00:17:54.574Z,100179.91
2023-02-14T00:20:23.890Z,100168.88
2023-02-14T00:22:50.850Z,100169.34
2023-02-14T00:25:17.613Z,100170.84
2023-02-14T00:27:44.298Z,100173.09
2023-02-14T00:30:12.245Z,100169.94
2023-02-14T00:32:40.204Z,100170.91
2023-02-14T00:35:07.964Z,100166.88
2023-02-14T00:37:34.787Z,100164.41
2023-02-14T00:40:01.304Z,100165.06
2023-02-14T00:42:27.864Z,100168.72
2023-02-14T00:44:54.440Z,100175.84
2023-02-14T00:47:20.977Z,100180.31
2023-02-14T00:49:47.526Z,100176.78
2023-02-14T00:52:14.091Z,100177.88
2023-02-14T00:54:40.677Z,100174.75
2023-02-14T00:57:07.234Z,100171.28
2023-02-14T00:59:35.352Z,100170.25
2023-02-14T01:02:03.753Z,100175.41
2023-02-14T01:04:30.251Z,100175.09
2023-02-14T01:06:56.798Z,100169.94
2023-02-14T01:09:23.316Z,100180.00
2023-02-14T01:11:49.880Z,100177.28
2023-02-14T01:14:16.392Z,100172.44
2023-02-14T01:16:42.931Z,100179.88
2023-02-14T01:19:09.981Z,100178.03
2023-02-14T01:21:36.577Z,100167.66
2023-02-14T01:24:06.253Z,100173.63
2023-02-14T01:26:32.971Z,100165.09
2023-02-14T01:29:01.651Z,100160.88
2023-02-14T01:31:32.091Z,100168.66
2023-02-14T01:33:59.613Z,100167.03
2023-02-14T01:36:35.539Z,100163.69
2023-02-14T01:39:05.053Z,100167.06
2023-02-14T01:41:33.487Z,100159.53
2023-02-14T01:44:04.924Z,100156.50
2023-02-14T01:46:34.506Z,100151.00
2023-02-14T01:49:04.824Z,100154.16
2023-02-14T01:51:32.779Z,100155.13
2023-02-14T01:53:59.926Z,100153.28
2023-02-14T01:56:37.594Z,100150.38
2023-02-14T01:59:07.221Z,100153.00
2023-02-14T02:01:33.940Z,100159.09
2023-02-14T02:04:10.644Z,100152.41
2023-02-14T02:06:43.487Z,100158.94
2023-02-14T02:09:16.408Z,100154.97
2023-02-14T02:11:43.475Z,100156.78
2023-02-14T02:14:18.814Z,100157.44
2023-02-14T02:17:21.646Z,100146.94
2023-02-14T02:20:20.831Z,100157.63
2023-02-14T02:23:09.372Z,100150.03
2023-02-14T02:26:12.466Z,100145.13
2023-02-14T02:28:48.166Z,100149.53
2023-02-14T02:31:25.814Z,100148.16
2023-02-14T02:34:03.840Z,100154.44
2023-02-14T02:36:58.564Z,100154.13
2023-02-14T02:39:45.742Z,100156.69
2023-02-14T02:42:36.662Z,100159.13
2023-02-14T02:45:09.195Z,100158.22
2023-02-14T02:48:05.930Z,100158.22
2023-02-14T02:50:57.570Z,100150.94
2023-02-14T02:53:26.206Z,100151.81
2023-02-14T02:56:15.948Z,100148.19
2023-02-14T02:58:49.359Z,100146.97
2023-02-14T03:01:21.187Z,100149.09
2023-02-14T03:04:11.549Z,100148.34
2023-02-14T03:06:38.163Z,100151.69
2023-02-14T03:09:33.653Z,100153.66
2023-02-14T03:12:15.253Z,100155.66
2023-02-14T03:14:50.917Z,100159.44
2023-02-14T03:17:43.921Z,100152.75
2023-02-14T03:20:22.710Z,100151.22
2023-02-14T03:23:09.595Z,100155.03
2023-02-14T03:25:51.926Z,100164.16
2023-02-14T03:28:43.659Z,100167.53
2023-02-14T03:31:22.053Z,100166.66
2023-02-14T03:34:10.772Z,100163.44
2023-02-14T03:36:57.118Z,100160.22
2023-02-14T03:39:28.269Z,100169.22
2023-02-14T03:42:06.100Z,100161.59
2023-02-14T03:44:34.495Z,100145.34
2023-02-14T03:47:08.195Z,100152.19
2023-02-14T03:49:39.273Z,100154.00
2023-02-14T03:52:07.756Z,100155.22
2023-02-14T03:54:34.957Z,100146.69
2023-02-14T03:57:08.585Z,100147.44
2023-02-14T03:59:36.057Z,100146.84
2023-02-14T04:02:09.176Z,100148.53
2023-02-14T04:04:44.402Z,100137.72
2023-02-14T04:07:19.706Z,100142.72
2023-02-14T04:09:46.683Z,100137.88
2023-02-14T04:12:13.850Z,100138.63
2023-02-14T04:14:40.412Z,100139.53
2023-02-14T04:17:26.150Z,100136.78
2023-02-14T04:19:52.965Z,100144.25
2023-02-14T04:22:19.773Z,100143.97
2023-02-14T04:24:46.301Z,100141.53
2023-02-14T04:27:12.884Z,100140.00
2023-02-14T04:29:47.360Z,100138.91
2023-02-14T04:32:17.238Z,100131.47
2023-02-14T04:34:44.211Z,100141.81
2023-02-14T04:37:11.502Z,100148.34
2023-02-14T04:39:38.317Z,100144.88
2023-02-14T04:42:05.254Z,100138.47
2023-02-14T04:44:33.892Z,100142.75
2023-02-14T04:47:00.936Z,100135.44
2023-02-14T04:49:27.546Z,100136.34
2023-02-14T04:51:54.053Z,100132.84
2023-02-14T04:54:20.561Z,100138.00
2023-02-14T04:56:47.057Z,100138.19
2023-02-14T04:59:14.566Z,100134.19
2023-02-14T05:01:41.470Z,100135.75
2023-02-14T05:04:08.955Z,100134.66
2023-02-14T05:06:36.135Z,100132.53
2023-02-14T05:09:03.352Z,100124.94
2023-02-14T05:11:30.064Z,100125.53
2023-02-14T05:13:56.579Z,100128.41
2023-02-14T05:16:23.615Z,100129.63
2023-02-14T05:18:50.144Z,100133.75
2023-02-14T05:21:16.691Z,100134.78
2023-02-14T05:23:43.369Z,100132.03
2023-02-14T05:26:09.867Z,100134.50
2023-02-14T05:28:36.604Z,100130.53
2023-02-14T05:31:03.632Z,100133.44
2023-02-14T05:33:30.539Z,100132.03
2023-02-14T05:35:59.579Z,100126.13
2023-02-14T05:38:26.163Z,100125.66
2023-02-14T05:40:52.772Z,100129.31
2023-02-14T05:43:19.573Z,100133.56
2023-02-14T05:45:46.085Z,100138.13
2023-02-14T05:48:13.326Z,100136.00
2023-02-14T05:50:40.011Z,100139.53
2023-02-14T05:53:06.923Z,100141.34
2023-02-14T05:55:33.418Z,100145.13
2023-02-14T05:57:59.980Z,100150.47
2023-02-14T06:00:27.411Z,100146.34
2023-02-14T06:02:54.165Z,100150.00
2023-02-14T06:05:20.914Z,100150.78
2023-02-14T06:07:50.808Z,100151.50
2023-02-14T06:10:22.412Z,100154.25
2023-02-14T06:12:50.036Z,100155.47
2023-02-14T06:15:17.057Z,100153.94
2023-02-14T06:17:43.858Z,100149.25
2023-02-14T06:20:11.215Z,100150.78
2023-02-14T06:22:38.257Z,100159.44
2023-02-14T06:25:06.192Z,100155.47
2023-02-14T06:27:32.914Z,100159.44
2023-02-14T06:29:59.610Z,100156.06
2023-02-14T06:32:26.204Z,100155.47
2023-02-14T06:34:52.694Z,100155.00
2023-02-14T06:37:20.102Z,100157.28
2023-02-14T06:39:46.742Z,100157.47
2023-02-14T06:42:13.650Z,100152.13
2023-02-14T06:44:40.225Z,100159.13
2023-02-14T06:47:08.450Z,100164.00
2023-02-14T06:49:34.970Z,100167.03
2023-02-14T06:52:01.470Z,100167.94
2023-02-14T06:54:27.959Z,100167.22
2023-02-14T06:56:54.501Z,100168.13
2023-02-14T06:59:21.660Z,100161.28
2023-02-14T07:01:48.255Z,100160.34
2023-02-14T07:04:14.771Z,100169.34
2023-02-14T07:06:41.281Z,100164.00
2023-02-14T07:09:07.838Z,100160.22
2023-02-14T07:11:34.409Z,100169.84
2023-02-14T07:14:00.938Z,100165.56
2023-02-14T07:16:27.479Z,100159.66
2023-02-14T07:18:53.970Z,100158.44
2023-02-14T07:21:20.537Z,100161.47
2023-02-14T07:23:49.909Z,100159.47
2023-02-14T07:26:18.188Z,100163.09
2023-02-14T07:28:51.710Z,100158.66
2023-02-14T07:31:19.986Z,100158.50
2023-02-14T07:33:46.552Z,100159.13
2023-02-14T07:36:13.046Z,100156.34
2023-02-14T07:38:39.546Z,100145.34
2023-02-14T07:41:06.662Z,100148.38
2023-02-14T07:43:34.413Z,100146.66
2023-02-14T07:46:02.236Z,100149.31
2023-02-14T07:48:31.898Z,100149.03
2023-02-14T07:51:00.186Z,100163.13
2023-02-14T07:53:26.986Z,100154.88
2023-02-14T07:55:53.638Z,100160.63
2023-02-14T07:58:20.151Z,100154.44
2023-02-14T08:00:46.753Z,100157.03
2023-02-14T08:03:14.071Z,100149.19
2023-02-14T08:05:41.097Z,100155.31
2023-02-14T08:08:07.667Z,100148.19
2023-02-14T08:10:34.384Z,100156.13
2023-02-14T08:13:01.106Z,100145.06
2023-02-14T08:15:48.779Z,100149.19
2023-02-14T08:18:15.797Z,100144.59
2023-02-14T08:20:42.406Z,100152.72
2023-02-14T08:23:08.969Z,100153.34
2023-02-14T08:25:35.585Z,100151.09
2023-02-14T08:28:03.453Z,100148.31
2023-02-14T08:30:31.099Z,100146.41
2023-02-14T08:32:57.801Z,100140.38
2023-02-14T08:35:26.049Z,100148.72
2023-02-14T08:37:55.050Z,100152.88
2023-02-14T08:40:21.573Z,100150.03
2023-02-14T08:42:48.444Z,100152.50
2023-02-14T08:45:14.919Z,100152.53
2023-02-14T08:47:41.463Z,100152.63
2023-02-14T08:50:13.163Z,100147.69
2023-02-14T08:52:40.691Z,100139.28
2023-02-14T08:55:07.782Z,100145.88
2023-02-14T08:57:34.340Z,100134.16
2023-02-14T09:00:01.014Z,100135.28
2023-02-14T09:02:27.627Z,100133.94
2023-02-14T09:04:54.519Z,100135.19
2023-02-14T09:07:21.132Z,100138.06
2023-02-14T09:09:47.669Z,100135.50
2023-02-14T09:12:14.318Z,100134.44
2023-02-14T09:14:44.014Z,100138.09
2023-02-14T09:17:15.178Z,100127.19
2023-02-14T09:19:41.940Z,100123.50
2023-02-14T09:22:09.681Z,100122.72
2023-02-14T09:24:37.658Z,100117.09
2023-02-14T09:27:04.783Z,100113.69
2023-02-14T09:29:32.002Z,100117.53
2023-02-14T09:32:00.274Z,100109.44
2023-02-14T09:34:27.953Z,100108.69
2023-02-14T09:37:13.084Z,100119.19
2023-02-14T09:39:39.875Z,100114.47
2023-02-14T09:42:24.848Z,100108.78
2023-02-14T09:44:58.735Z,100100.19
2023-02-14T09:47:50.318Z,100107.50
2023-02-14T09:50:24.048Z,100105.47
2023-02-14T09:52:53.866Z,100107.56
2023-02-14T09:55:20.403Z,100105.00
2023-02-14T09:58:01.749Z,100110.28
2023-02-14T10:00:48.935Z,100100.22
2023-02-14T10:03:32.663Z,100100.63
2023-02-14T10:06:05.236Z,100095.94
2023-02-14T10:08:31.707Z,100089.19
2023-02-14T10:11:07.248Z,100087.94
2023-02-14T10:13:40.128Z,100092.56
2023-02-14T10:16:27.214Z,100095.97
2023-02-14T10:19:12.076Z,100088.13
2023-02-14T10:21:43.067Z,100079.47
2023-02-14T10:24:31.901Z,100076.59
2023-02-14T10:27:11.084Z,100079.41
2023-02-14T10:29:37.730Z,100073.50
2023-02-14T10:32:04.989Z,100069.03
2023-02-14T10:34:42.008Z,100060.50
2023-02-14T10:37:27.216Z,100066.09
2023-02-14T10:40:05.439Z,100057.63
2023-02-14T10:42:40.699Z,100055.22
2023-02-14T10:45:22.401Z,100061.66
2023-02-14T10:47:52.951Z,100049.25
2023-02-14T10:50:39.911Z,100055.06
2023-02-14T10:53:15.687Z,100053.84
2023-02-14T10:55:57.006Z,100049.19
2023-02-14T10:58:25.749Z,100044.16
2023-02-14T11:01:03.240Z,100044.16
2023-02-14T11:03:30.203Z,100042.28
2023-02-14T11:05:56.982Z,100034.94
2023-02-14T11:08:41.602Z,100033.91
2023-02-14T11:11:17.375Z,100035.22
2023-02-14T11:13:44.618Z,100030.06
2023-02-14T11:16:14.295Z,100027.94
2023-02-14T11:18:41.289Z,100027.53
2023-02-14T11:21:14.036Z,100027.88
2023-02-14T11:23:46.036Z,100021.94
2023-02-14T11:26:31.531Z,100016.44
2023-02-14T11:29:00.843Z,100008.22
2023-02-14T11:31:36.101Z,100014.59
2023-02-14T11:34:05.486Z,100006.41
2023-02-14T11:36:32.538Z,99997.53
2023-02-14T11:39:22.022Z,100001.84
2023-02-14T11:41:54.375Z,99992.41
2023-02-14T11:44:24.088Z,100003.25
2023-02-14T11:46:53.669Z,99989.22
2023-02-14T11:49:40.704Z,99990.97
2023-02-14T11:52:14.820Z,99981.63
2023-02-14T11:54:41.680Z,99977.03
2023-02-14T11:57:21.146Z,99974.25
2023-02-14T11:59:53.197Z,99979.19
2023-02-14T12:02:26.391Z,99968.81
2023-02-14T12:04:56.025Z,99972.88
2023-02-14T12:07:33.824Z,99963.59
2023-02-14T12:10:17.887Z,99960.66
2023-02-14T12:13:08.634Z,99962.28
2023-02-14T12:15:43.985Z,99962.97
2023-02-14T12:18:37.438Z,99954.91
2023-02-14T12:21:16.027Z,99947.22
2023-02-14T12:23:48.604Z,99947.78
2023-02-14T12:26:40.386Z,99946.66
2023-02-14T12:29:18.244Z,99944.75
2023-02-14T12:31:47.251Z,99932.44
2023-02-14T12:34:14.950Z,99936.19
2023-02-14T12:37:15.252Z,99928.91
2023-02-14T12:40:04.956Z,99928.44
2023-02-14T12:42:34.979Z,99930.59
2023-02-14T12:45:19.967Z,99922.44
2023-02-14T12:48:03.967Z,99920.69
2023-02-14T12:50:51.431Z,99915.41
2023-02-14T12:53:33.732Z,99916.81
2023-02-14T12:56:24.747Z,99911.59
2023-02-14T12:59:15.191Z,99911.00
2023-02-14T13:02:00.205Z,99903.41
2023-02-14T13:04:41.883Z,99903.91
2023-02-14T13:07:38.153Z,99895.09
2023-02-14T13:10:16.744Z,99894.47
2023-02-14T13:12:48.891Z,99888.94
2023-02-14T13:15:19.106Z,99893.63
2023-02-14T13:18:17.233Z,99885.69
2023-02-14T13:20:57.493Z,99874.94
2023-02-14T13:23:29.905Z,99877.72
2023-02-14T13:26:01.536Z,99873.41
2023-02-14T13:28:29.265Z,99872.03
2023-02-14T13:30:56.311Z,99867.09
2023-02-14T13:33:34.934Z,99862.56
2023-02-14T13:36:04.230Z,99865.91
2023-02-14T13:38:31.934Z,99861.69
2023-02-14T13:41:00.114Z,99868.13
2023-02-14T13:43:45.554Z,99858.41
2023-02-14T13:46:13.443Z,99860.59
2023-02-14T13:48:40.318Z,99857.66
2023-02-14T13:51:08.517Z,99854.13
2023-02-14T13:53:42.092Z,99855.38
2023-02-14T13:56:11.611Z,99856.31
2023-02-14T13:58:48.865Z,99857.47
2023-02-14T14:01:48.215Z,99850.38
2023-02-14T14:04:31.658Z,99848.22
2023-02-14T14:07:01.278Z,99838.75
2023-02-14T14:09:42.871Z,99848.44
2023-02-14T14:12:27.955Z,99838.16
2023-02-14T14:15:07.274Z,99845.66
2023-02-14T14:17:46.358Z,99838.88
2023-02-14T14:20:15.820Z,99837.47
2023-02-14T14:22:54.976Z,99845.53
2023-02-14T14:25:37.189Z,99841.22
2023-02-14T14:28:24.950Z,99841.41
2023-02-14T14:30:51.647Z,99838.56
2023-02-14T14:33:31.032Z,99834.88
2023-02-14T14:36:04.336Z,99832.97
2023-02-14T14:38:33.408Z,99826.09
2023-02-14T14:41:01.250Z,99835.94
2023-02-14T14:43:29.422Z,99827.34
2023-02-14T14:45:57.190Z,99826.94
2023-02-14T14:48:41.273Z,99825.94
2023-02-14T14:51:09.928Z,99824.31
2023-02-14T14:54:16.485Z,99823.03
2023-02-14T14:56:52.175Z,99828.81
2023-02-14T14:59:37.231Z,99824.06
2023-02-14T15:02:19.871Z,99817.59
2023-02-14T15:04:46.400Z,99830.25
2023-02-14T15:07:33.623Z,99829.56
2023-02-14T15:10:00.404Z,99825.06
2023-02-14T15:12:45.519Z,99824.31
2023-02-14T15:15:14.642Z,99827.09
2023-02-14T15:17:42.396Z,99825.34
2023-02-14T15:20:14.611Z,99816.97
2023-02-14T15:22:46.994Z,99820.94
2023-02-14T15:25:26.075Z,99826.94
2023-02-14T15:27:52.699Z,99829.56
2023-02-14T15:30:36.182Z,99835.53
2023-02-14T15:33:07.256Z,99835.41
2023-02-14T15:35:38.054Z,99831.75
2023-02-14T15:38:06.164Z,99824.63
2023-02-14T15:40:34.733Z,99827.56
2023-02-14T15:43:22.007Z,99829.66
2023-02-14T15:45:51.514Z,99818.41
2023-02-14T15:48:41.317Z,99827.47
2023-02-14T15:51:18.664Z,99815.41
2023-02-14T15:54:07.788Z,99819.38
2023-02-14T15:56:52.818Z,99813.84
2023-02-14T15:59:24.178Z,99821.19
2023-02-14T16:01:59.097Z,99819.47
2023-02-14T16:04:27.938Z,99822.47
2023-02-14T16:07:22.986Z,99820.34
2023-02-14T16:09:51.018Z,99820.66
2023-02-14T16:12:31.686Z,99817.69
2023-02-14T16:15:21.347Z,99820.81
2023-02-14T16:17:48.506Z,99824.06
2023-02-14T16:20:29.092Z,99827.31
2023-02-14T16:23:27.422Z,99819.94
2023-02-14T16:25:57.453Z,99815.50
2023-02-14T16:28:28.416Z,99826.38
2023-02-14T16:30:56.631Z,99831.91
2023-02-14T16:33:26.627Z,99823.81
2023-02-14T16:35:53.774Z,99825.38
2023-02-14T16:38:21.710Z,99814.84
2023-02-14T16:40:50.336Z,99824.13
2023-02-14T16:43:19.020Z,99824.63
2023-02-14T16:45:49.003Z,99824.38
2023-02-14T16:48:18.263Z,99825.91
2023-02-14T16:50:54.193Z,99821.63
2023-02-14T16:53:27.565Z,99822.16
2023-02-14T16:55:55.122Z,99823.91
2023-02-14T16:58:26.897Z,99825.91
2023-02-14T17:00:53.577Z,99820.91
2023-02-14T17:03:20.126Z,99826.91
2023-02-14T17:05:46.759Z,99833.94
2023-02-14T17:08:15.224Z,99830.13
2023-02-14T17:10:42.153Z,99836.16
2023-02-14T17:13:10.457Z,99834.66
2023-02-14T17:15:38.520Z,99826.59
2023-02-14T17:18:09.107Z,99833.13
2023-02-14T17:20:35.561Z,99841.13
2023-02-14T17:23:02.111Z,99845.09
2023-02-14T17:25:28.682Z,99841.06
2023-02-14T17:27:56.394Z,99842.31
2023-02-14T17:30:23.398Z,99852.63
2023-02-14T17:32:49.859Z,99840.81
2023-02-14T17:35:16.874Z,99849.34
2023-02-14T17:37:43.668Z,99845.09
2023-02-14T17:40:10.792Z,99841.56
2023-02-14T17:42:38.789Z,99839.78
2023-02-14T17:45:06.582Z,99844.03
2023-02-14T17:47:33.319Z,99837.16
2023-02-14T17:49:59.911Z,99842.00
2023-02-14T17:52:28.428Z,99849.72
2023-02-14T17:54:55.134Z,99844.44
2023-02-14T17:57:21.838Z,99847.94
2023-02-14T17:59:48.240Z,99843.88
2023-02-14T18:02:14.737Z,99845.06
2023-02-14T18:04:41.152Z,99843.25
2023-02-14T18:07:07.585Z,99839.44
2023-02-14T18:09:34.106Z,99838.69
2023-02-14T18:12:00.542Z,99841.50
2023-02-14T18:14:27.071Z,99849.50
2023-02-14T18:16:53.861Z,99852.19
2023-02-14T18:19:20.481Z,99849.94
2023-02-14T18:21:47.065Z,99843.66
2023-02-14T18:24:15.164Z,99845.19
2023-02-14T18:26:41.974Z,99845.78
2023-02-14T18:29:13.914Z,99841.78
2023-02-14T18:31:41.152Z,99846.56
2023-02-14T18:34:07.881Z,99849.16
2023-02-14T18:36:38.899Z,99841.69
2023-02-14T18:39:05.442Z,99841.78
2023-02-14T18:41:32.052Z,99836.63
2023-02-14T18:43:58.737Z,99839.75
2023-02-14T18:46:30.627Z,99833.50
2023-02-14T18:48:57.610Z,99831.69
2023-02-14T18:51:25.322Z,99837.19
2023-02-14T18:53:52.240Z,99833.41
2023-02-14T18:56:21.297Z,99820.38
2023-02-14T18:58:50.514Z,99828.91
2023-02-14T19:01:19.914Z,99817.91
2023-02-14T19:03:46.560Z,99827.25
2023-02-14T19:06:13.095Z,99820.09
2023-02-14T19:08:40.056Z,99815.28
2023-02-14T19:11:18.231Z,99802.53
2023-02-14T19:13:46.313Z,99804.28
2023-02-14T19:16:15.376Z,99807.88
2023-02-14T19:18:42.104Z,99808.19
2023-02-14T19:21:13.128Z,99809.00
2023-02-14T19:23:41.900Z,99801.72
2023-02-14T19:26:12.566Z,99808.53
2023-02-14T19:28:39.628Z,99813.34
2023-02-14T19:31:06.421Z,99816.31
2023-02-14T19:33:37.958Z,99812.06
2023-02-14T19:36:09.242Z,99809.75
2023-02-14T19:38:36.080Z,99807.13
2023-02-14T19:41:02.897Z,99803.81
2023-02-14T19:43:29.600Z,99803.31
2023-02-14T19:45:56.189Z,99792.56
2023-02-14T19:48:23.437Z,99794.75
2023-02-14T19:50:50.749Z,99797.22
2023-02-14T19:53:17.268Z,99791.75
2023-02-14T19:55:43.773Z,99782.28
2023-02-14T19:58:17.927Z,99779.75
2023-02-14T20:00:44.700Z,99789.03
2023-02-14T20:03:11.237Z,99783.94
2023-02-14T20:05:41.619Z,99781.13
2023-02-14T20:08:08.798Z,99784.72
2023-02-14T20:10:35.494Z,99783.47
2023-02-14T20:13:01.988Z,99779.69
2023-02-14T20:15:29.092Z,99776.03
2023-02-14T20:17:57.027Z,99778.81
2023-02-14T20:20:23.766Z,99777.28
2023-02-14T20:22:50.292Z,99772.88
2023-02-14T20:25:17.393Z,99777.84
2023-02-14T20:27:44.146Z,99783.69
2023-02-14T20:30:12.641Z,99776.44
2023-02-14T20:32:39.194Z,99777.84
2023-02-14T20:35:06.555Z,99774.94
2023-02-14T20:37:33.128Z,99767.81
2023-02-14T20:40:00.283Z,99762.44
2023-02-14T20:42:27.022Z,99765.13
2023-02-14T20:44:53.782Z,99765.06
2023-02-14T20:47:20.754Z,99760.66
2023-02-14T20:49:47.486Z,99755.16
2023-02-14T20:52:14.099Z,99752.31
2023-02-14T20:54:40.618Z,99751.53
2023-02-14T20:57:07.329Z,99744.94
2023-02-14T20:59:34.053Z,99753.38
2023-02-14T21:02:00.701Z,99741.00
2023-02-14T21:04:28.255Z,99740.59
2023-02-14T21:06:55.697Z,99736.13
2023-02-14T21:09:22.231Z,99733.63
2023-02-14T21:11:49.590Z,99734.31
2023-02-14T21:14:17.372Z,99725.75
2023-02-14T21:16:43.973Z,99725.28
2023-02-14T21:19:10.406Z,99720.47
2023-02-14T21:21:37.373Z,99721.34
2023-02-14T21:24:04.953Z,99717.78
2023-02-14T21:26:32.154Z,99724.22
2023-02-14T21:28:58.680Z,99729.50
2023-02-14T21:31:25.739Z,99730.47
2023-02-14T21:33:54.447Z,99721.13
2023-02-14T21:36:21.951Z,99718.28
2023-02-14T21:38:48.618Z,99723.41
2023-02-14T21:41:16.159Z,99717.41
2023-02-14T21:43:44.379Z,99701.78
2023-02-14T21:46:16.130Z,99704.22
2023-02-14T21:49:01.035Z,99707.28
2023-02-14T21:51:27.723Z,99708.13
2023-02-14T21:53:54.696Z,99709.66
2023-02-14T21:56:22.315Z,99711.00
2023-02-14T21:58:50.690Z,99715.81
2023-02-14T22:01:31.837Z,99714.03
2023-02-14T22:03:58.459Z,99712.75
2023-02-14T22:06:25.935Z,99711.81
2023-02-14T22:08:54.183Z,99710.28
2023-02-14T22:11:21.445Z,99708.63
2023-02-14T22:13:47.989Z,99707.19
2023-02-14T22:16:16.909Z,99704.56
2023-02-14T22:18:44.650Z,99709.84
2023-02-14T22:21:13.896Z,99705.22
2023-02-14T22:23:40.517Z,99704.97
2023-02-14T22:26:17.429Z,99705.03
2023-02-14T22:28:45.722Z,99699.97
2023-02-14T22:31:12.633Z,99700.72
2023-02-14T22:33:39.421Z,99703.97
2023-02-14T22:36:07.451Z,99703.19
2023-02-14T22:38:34.765Z,99706.22
2023-02-14T22:41:09.971Z,99702.22
2023-02-14T22:43:37.292Z,99698.81
2023-02-14T22:46:08.034Z,99691.13
2023-02-14T22:48:35.228Z,99697.78
2023-02-14T22:51:30.129Z,99693.34
2023-02-14T22:54:08.384Z,99685.56
2023-02-14T22:56:41.029Z,99687.34
2023-02-14T22:59:18.624Z,99685.34
2023-02-14T23:01:45.743Z,99687.84
2023-02-14T23:04:12.718Z,99693.03
2023-02-14T23:06:41.676Z,99684.44
2023-02-14T23:09:11.281Z,99687.13
2023-02-14T23:11:39.410Z,99686.28
2023-02-14T23:14:24.548Z,99683.84
2023-02-14T23:17:10.164Z,99683.00
2023-02-14T23:19:55.501Z,99679.69
2023-02-14T23:22:36.285Z,99677.22
2023-02-14T23:25:05.266Z,99676.34
2023-02-14T23:27:34.612Z,99688.63
2023-02-14T23:30:03.455Z,99681.28
2023-02-14T23:32:29.986Z,99686.56
2023-02-14T23:34:57.324Z,99676.91
2023-02-14T23:37:23.905Z,99685.28
2023-02-14T23:39:50.380Z,99676.94
2023-02-14T23:42:17.243Z,99681.47
2023-02-14T23:44:46.008Z,99675.97
2023-02-14T23:47:13.464Z,99671.81
2023-02-14T23:49:40.708Z,99663.69
2023-02-14T23:52:09.277Z,99670.53
2023-02-14T23:54:36.523Z,99664.75
2023-02-14T23:57:03.553Z,99666.63
2023-02-14T23:59:30.418Z,99666.22
